Time;durP1;ratioP1;P1;durP2;ratioP2;P2;SDS_P1;SDS_P2;PMS_P1;PMS_P2;Temp;Humidity;BMP_temperature;BMP_pressure;BME280_temperature;BME280_humidity;BME280_pressure;Samples;Min_cycle;Max_cycle;Signal;HPM_P1;HPM_P2
2023/03/19 00:01:24;;;;;;;27.43;21.23;;;10.00;99.90;;;;;;5083923;27;20040;-80
2023/03/19 00:03:50;;;;;;;26.53;21.60;;;10.00;99.90;;;;;;5112832;27;20044;-80
2023/03/19 00:06:16;;;;;;;26.27;21.03;;;9.90;99.90;;;;;;5111136;27;20406;-79
2023/03/19 00:08:41;;;;;;;24.50;20.43;;;9.90;99.90;;;;;;5093411;27;20107;-80
2023/03/19 00:11:09;;;;;;;26.40;21.03;;;9.90;99.90;;;;;;5077964;27;20053;-79
2023/03/19 00:13:35;;;;;;;26.10;20.40;;;9.90;99.90;;;;;;5101571;27;20055;-80
2023/03/19 00:16:01;;;;;;;25.53;21.13;;;9.90;99.90;;;;;;5128708;27;20043;-80
2023/03/19 00:18:27;;;;;;;30.07;20.30;;;9.90;99.90;;;;;;5086201;27;20063;-80
2023/03/19 00:20:52;;;;;;;24.73;20.47;;;9.90;99.90;;;;;;5091555;27;20048;-80
2023/03/19 00:23:18;;;;;;;26.37;20.07;;;9.90;99.90;;;;;;5102525;27;20077;-80
2023/03/19 00:25:44;;;;;;;27.30;21.47;;;9.90;99.90;;;;;;5124075;27;20039;-80
2023/03/19 00:28:10;;;;;;;26.40;21.23;;;9.90;99.90;;;;;;5088278;27;20050;-79
2023/03/19 00:30:36;;;;;;;29.37;22.50;;;10.00;99.90;;;;;;5098909;27;20549;-80
2023/03/19 00:33:02;;;;;;;27.97;23.43;;;10.00;99.90;;;;;;5074676;27;20043;-79
2023/03/19 00:35:28;;;;;;;26.00;22.10;;;10.00;99.90;;;;;;5099150;27;20039;-80
2023/03/19 00:37:54;;;;;;;26.73;21.40;;;10.10;99.90;;;;;;5102879;27;20525;-80
2023/03/19 00:40:20;;;;;;;27.90;22.37;;;10.00;99.90;;;;;;5083003;27;20082;-80
2023/03/19 00:42:45;;;;;;;24.90;20.60;;;10.10;99.90;;;;;;5086641;28;20040;-80
2023/03/19 00:45:12;;;;;;;30.33;22.03;;;10.10;99.90;;;;;;5083385;27;20433;-80
2023/03/19 00:47:37;;;;;;;25.93;21.17;;;10.10;99.90;;;;;;5124409;27;21093;-80
2023/03/19 00:50:05;;;;;;;25.73;20.93;;;10.10;99.90;;;;;;5101548;27;20048;-80
2023/03/19 00:52:31;;;;;;;25.30;20.30;;;10.20;99.90;;;;;;5100443;27;20431;-78
2023/03/19 00:54:56;;;;;;;26.33;20.33;;;10.20;99.90;;;;;;5099491;28;20036;-80
2023/03/19 00:57:22;;;;;;;27.33;21.40;;;10.20;99.90;;;;;;5121508;27;20131;-79
2023/03/19 00:59:48;;;;;;;25.50;20.90;;;10.20;99.90;;;;;;5103484;27;20593;-80
2023/03/19 01:02:14;;;;;;;25.20;21.00;;;10.20;99.90;;;;;;5057328;27;20174;-80
2023/03/19 01:04:40;;;;;;;28.63;20.23;;;10.20;99.90;;;;;;5084286;27;20077;-80
2023/03/19 01:07:06;;;;;;;26.63;20.37;;;10.20;99.90;;;;;;5084754;27;20077;-80
2023/03/19 01:09:31;;;;;;;25.67;20.50;;;10.20;99.90;;;;;;5067469;28;20567;-80
2023/03/19 01:11:57;;;;;;;24.70;19.97;;;10.20;99.90;;;;;;5087744;27;20512;-80
2023/03/19 01:14:24;;;;;;;25.13;20.40;;;10.20;99.90;;;;;;5122592;27;20517;-80
2023/03/19 01:16:50;;;;;;;29.00;20.90;;;10.20;99.90;;;;;;5090159;27;20034;-81
2023/03/19 01:19:15;;;;;;;29.47;21.67;;;10.30;99.90;;;;;;5104556;28;20055;-79
2023/03/19 01:21:45;;;;;;;26.00;19.83;;;10.20;99.90;;;;;;5097728;27;20039;-80
2023/03/19 01:24:11;;;;;;;25.00;20.13;;;10.20;99.90;;;;;;5103693;27;20074;-80
2023/03/19 01:26:37;;;;;;;25.63;20.83;;;10.20;99.90;;;;;;5105240;27;20051;-80
2023/03/19 01:29:03;;;;;;;23.03;18.23;;;10.30;99.90;;;;;;5119292;27;20571;-80
2023/03/19 01:31:29;;;;;;;22.23;18.77;;;10.30;99.90;;;;;;5102708;27;20044;-81
2023/03/19 01:33:55;;;;;;;22.43;17.50;;;10.30;99.90;;;;;;5090890;27;20046;-80
2023/03/19 01:36:21;;;;;;;23.83;18.47;;;10.30;99.90;;;;;;5120033;27;20117;-80
2023/03/19 01:38:47;;;;;;;23.33;18.97;;;10.30;99.90;;;;;;5103883;28;20088;-79
2023/03/19 01:41:13;;;;;;;24.87;19.30;;;10.30;99.90;;;;;;5100915;28;20055;-80
2023/03/19 01:43:39;;;;;;;25.13;19.13;;;10.30;99.90;;;;;;5104300;28;20108;-80
2023/03/19 01:46:14;;;;;;;20.43;16.33;;;10.30;99.90;;;;;;5120625;27;20043;-80
2023/03/19 01:48:47;;;;;;;22.33;16.93;;;10.30;99.90;;;;;;5116298;27;20085;-80
2023/03/19 01:51:16;;;;;;;20.87;16.53;;;10.30;99.90;;;;;;5081664;28;20043;-80
2023/03/19 01:53:46;;;;;;;21.27;16.07;;;10.30;99.90;;;;;;5110089;27;20044;-80
2023/03/19 01:56:22;;;;;;;20.23;16.53;;;10.30;99.90;;;;;;5080770;27;20067;-80
2023/03/19 01:58:54;;;;;;;20.47;16.60;;;10.30;99.90;;;;;;5102786;27;20052;-80
2023/03/19 02:01:20;;;;;;;;;;;10.30;99.90;;;;;;5112770;27;20062;-80
2023/03/19 02:03:46;;;;;;;19.53;16.33;;;10.30;99.90;;;;;;5089235;27;19920;-79
2023/03/19 02:06:13;;;;;;;22.87;17.30;;;10.30;99.90;;;;;;5104695;27;20048;-79
2023/03/19 02:08:40;;;;;;;21.30;16.87;;;10.30;99.90;;;;;;5104978;28;20132;-80
2023/03/19 02:11:06;;;;;;;21.87;17.43;;;10.30;99.90;;;;;;5098266;27;20091;-80
2023/03/19 02:13:33;;;;;;;23.23;17.80;;;10.30;99.90;;;;;;5121006;27;20047;-80
2023/03/19 02:16:00;;;;;;;21.30;17.67;;;10.20;99.90;;;;;;5082919;28;20051;-80
2023/03/19 02:18:26;;;;;;;24.40;17.73;;;10.20;99.90;;;;;;5114286;27;20085;-80
2023/03/19 02:21:14;;;;;;;22.30;17.73;;;10.20;99.90;;;;;;5098217;28;20069;-80
2023/03/19 02:23:56;;;;;;;22.43;17.17;;;10.20;99.90;;;;;;5078496;27;20085;-80
2023/03/19 02:26:23;;;;;;;24.25;18.27;;;10.20;99.90;;;;;;5085427;28;20062;-80
2023/03/19 02:28:51;;;;;;;21.73;17.50;;;10.20;99.90;;;;;;5105021;28;20137;-80
2023/03/19 02:31:17;;;;;;;22.33;18.20;;;10.20;99.90;;;;;;5102547;27;20078;-80
2023/03/19 02:33:43;;;;;;;21.33;17.77;;;10.10;99.90;;;;;;5080885;27;20578;-80
2023/03/19 02:36:17;;;;;;;22.37;16.90;;;10.10;99.90;;;;;;5079966;28;20099;-80
2023/03/19 02:38:45;;;;;;;22.00;16.47;;;10.10;99.90;;;;;;5125808;27;20043;-80
2023/03/19 02:41:11;;;;;;;22.07;17.93;;;10.10;99.90;;;;;;5098509;27;20441;-80
2023/03/19 02:43:38;;;;;;;19.60;16.97;;;10.10;99.90;;;;;;5126082;27;20413;-80
2023/03/19 02:46:07;;;;;;;21.67;17.40;;;10.10;99.90;;;;;;5103131;28;20590;-80
2023/03/19 02:48:33;;;;;;;19.47;16.90;;;10.10;99.90;;;;;;5104883;28;20047;-79
2023/03/19 02:51:00;;;;;;;22.90;18.47;;;10.10;99.90;;;;;;5065113;28;20083;-80
2023/03/19 02:53:26;;;;;;;22.27;17.43;;;10.10;99.90;;;;;;5118110;28;20082;-79
2023/03/19 02:55:51;;;;;;;22.17;17.70;;;10.10;99.90;;;;;;5095824;28;20498;-80
2023/03/19 02:58:18;;;;;;;20.40;16.90;;;10.10;99.90;;;;;;5119500;28;20059;-79
2023/03/19 03:00:44;;;;;;;22.67;17.90;;;10.10;99.90;;;;;;5112115;28;20058;-80
2023/03/19 03:03:09;;;;;;;22.23;16.67;;;10.10;99.90;;;;;;5099277;28;20481;-79
2023/03/19 03:05:35;;;;;;;18.87;16.23;;;10.00;99.90;;;;;;5104807;28;20047;-79
2023/03/19 03:08:03;;;;;;;21.00;17.47;;;10.00;99.90;;;;;;5109429;28;20402;-79
2023/03/19 03:10:29;;;;;;;19.57;16.33;;;10.00;99.90;;;;;;5085057;27;20105;-80
2023/03/19 03:12:55;;;;;;;22.10;16.27;;;10.00;99.90;;;;;;5130142;27;20066;-80
2023/03/19 03:15:21;;;;;;;19.27;16.13;;;10.00;99.90;;;;;;5106538;27;20094;-79
2023/03/19 03:17:46;;;;;;;22.63;16.70;;;10.00;99.90;;;;;;5102606;28;20050;-80
2023/03/19 03:20:14;;;;;;;20.00;15.70;;;10.00;99.90;;;;;;5096016;27;20259;-79
2023/03/19 03:22:40;;;;;;;17.73;15.07;;;9.90;99.90;;;;;;5101799;27;20055;-79
2023/03/19 03:25:08;;;;;;;18.50;15.10;;;9.90;99.90;;;;;;5127052;27;20073;-80
2023/03/19 03:27:34;;;;;;;19.57;15.10;;;9.90;99.90;;;;;;5109062;27;20145;-80
2023/03/19 03:30:00;;;;;;;22.33;15.67;;;9.90;99.90;;;;;;5084532;27;20055;-80
2023/03/19 03:32:26;;;;;;;20.03;16.33;;;9.90;99.90;;;;;;5103287;28;20063;-80
2023/03/19 03:34:52;;;;;;;19.20;15.43;;;9.80;99.90;;;;;;5107433;27;20119;-80
2023/03/19 03:37:18;;;;;;;20.47;15.73;;;9.90;99.90;;;;;;5092562;27;20071;-79
2023/03/19 03:39:44;;;;;;;18.07;14.93;;;9.80;99.90;;;;;;5087236;27;20043;-80
2023/03/19 03:42:10;;;;;;;20.20;15.47;;;9.80;99.90;;;;;;5112874;27;20039;-80
2023/03/19 03:44:35;;;;;;;18.70;15.00;;;9.80;99.90;;;;;;5103981;27;20042;-80
2023/03/19 03:47:02;;;;;;;20.23;14.87;;;9.80;99.90;;;;;;5084589;27;20032;-80
2023/03/19 03:49:28;;;;;;;18.43;14.07;;;9.80;99.90;;;;;;5090609;27;20084;-79
2023/03/19 03:51:53;;;;;;;17.17;14.37;;;9.80;99.90;;;;;;5099154;27;20059;-80
2023/03/19 03:54:20;;;;;;;18.07;13.53;;;9.70;99.90;;;;;;5108132;27;20103;-79
2023/03/19 03:56:46;;;;;;;15.90;12.50;;;9.70;99.90;;;;;;5083336;28;20078;-80
2023/03/19 03:59:11;;;;;;;15.13;12.50;;;9.70;99.90;;;;;;5104444;27;20044;-80
2023/03/19 04:01:37;;;;;;;15.87;12.83;;;9.80;99.90;;;;;;5087286;27;20047;-80
2023/03/19 04:04:03;;;;;;;14.63;12.10;;;9.80;99.90;;;;;;5103081;27;20069;-80
2023/03/19 04:06:29;;;;;;;14.10;11.90;;;9.80;99.90;;;;;;5125039;27;20127;-80
2023/03/19 04:08:55;;;;;;;14.90;12.10;;;9.70;99.90;;;;;;5100593;28;20052;-79
2023/03/19 04:11:21;;;;;;;15.40;11.87;;;9.80;99.90;;;;;;5113798;27;20661;-80
2023/03/19 04:13:46;;;;;;;12.50;9.63;;;9.70;99.90;;;;;;5082694;28;20067;-80
2023/03/19 04:16:12;;;;;;;13.57;10.77;;;9.80;99.90;;;;;;5086211;27;20078;-80
2023/03/19 04:18:38;;;;;;;11.27;9.60;;;9.80;99.90;;;;;;5102195;27;20036;-80
2023/03/19 04:21:04;;;;;;;11.53;9.27;;;9.80;99.90;;;;;;5102098;27;20036;-80
2023/03/19 04:23:31;;;;;;;11.07;8.80;;;9.90;99.90;;;;;;5108847;27;20043;-80
2023/03/19 04:26:01;;;;;;;10.70;8.57;;;9.90;99.90;;;;;;5072255;27;20662;-79
2023/03/19 04:28:28;;;;;;;9.97;8.13;;;9.90;99.90;;;;;;5084593;27;20040;-80
2023/03/19 04:31:05;;;;;;;8.73;7.83;;;9.90;99.90;;;;;;5104014;27;20127;-80
2023/03/19 04:33:32;;;;;;;10.53;7.80;;;10.00;99.90;;;;;;5111414;27;20042;-79
2023/03/19 04:35:58;;;;;;;9.50;8.00;;;10.00;99.90;;;;;;5075507;27;20047;-79
2023/03/19 04:38:27;;;;;;;9.40;7.70;;;10.00;99.90;;;;;;5102938;27;20043;-80
2023/03/19 04:40:56;;;;;;;8.93;7.50;;;10.00;99.90;;;;;;5122139;27;20047;-79
2023/03/19 04:43:22;;;;;;;8.83;7.63;;;10.00;99.90;;;;;;5102902;27;20696;-80
2023/03/19 04:45:48;;;;;;;9.53;7.83;;;9.90;99.90;;;;;;5091943;27;20039;-79
2023/03/19 04:48:14;;;;;;;9.07;7.90;;;9.90;99.90;;;;;;5064829;27;20063;-80
2023/03/19 04:50:41;;;;;;;8.70;7.33;;;10.00;99.90;;;;;;5114450;27;20158;-80
2023/03/19 04:53:07;;;;;;;9.63;7.60;;;10.00;99.90;;;;;;5086744;27;20058;-80
2023/03/19 04:55:33;;;;;;;9.63;8.10;;;9.90;99.90;;;;;;5121767;27;20055;-80
2023/03/19 04:58:00;;;;;;;9.23;7.97;;;10.00;99.90;;;;;;5096375;27;20558;-80
2023/03/19 05:00:27;;;;;;;9.33;7.40;;;9.90;99.90;;;;;;5118620;27;20052;-80
2023/03/19 05:02:52;;;;;;;9.73;8.07;;;9.90;99.90;;;;;;5130607;27;20043;-80
2023/03/19 05:05:18;;;;;;;8.10;7.10;;;9.90;99.90;;;;;;5100059;27;20086;-79
2023/03/19 05:07:44;;;;;;;10.30;7.53;;;9.90;99.90;;;;;;5116724;27;20119;-80
2023/03/19 05:10:10;;;;;;;9.17;7.13;;;9.80;99.90;;;;;;5102997;27;20161;-80
2023/03/19 05:12:36;;;;;;;8.67;7.50;;;9.70;99.90;;;;;;5102111;27;20115;-79
2023/03/19 05:15:04;;;;;;;9.40;7.40;;;9.70;99.90;;;;;;5086963;27;20083;-79
2023/03/19 05:17:30;;;;;;;9.67;7.10;;;9.60;99.90;;;;;;5097556;28;20680;-80
2023/03/19 05:19:56;;;;;;;8.80;7.43;;;9.60;99.90;;;;;;5091457;27;20063;-79
2023/03/19 05:22:22;;;;;;;8.97;7.13;;;9.50;99.90;;;;;;5072299;27;20055;-79
2023/03/19 05:24:48;;;;;;;8.23;6.83;;;9.50;99.90;;;;;;5100089;28;20051;-79
2023/03/19 05:27:14;;;;;;;9.07;6.63;;;9.50;99.90;;;;;;5098436;27;20114;-79
2023/03/19 05:29:41;;;;;;;8.33;6.70;;;9.50;99.90;;;;;;5099925;27;20044;-80
2023/03/19 05:32:07;;;;;;;10.70;7.03;;;9.40;99.90;;;;;;5090159;27;20031;-79
2023/03/19 05:34:33;;;;;;;9.97;7.10;;;9.40;99.90;;;;;;5080674;28;20056;-80
2023/03/19 05:36:59;;;;;;;7.43;6.73;;;9.30;99.90;;;;;;5090756;27;20866;-79
2023/03/19 05:39:25;;;;;;;8.43;6.90;;;9.30;99.90;;;;;;5095708;27;20035;-80
2023/03/19 05:41:51;;;;;;;8.80;6.30;;;9.30;99.90;;;;;;5124407;27;20028;-80
2023/03/19 05:44:17;;;;;;;9.00;7.30;;;9.30;99.90;;;;;;5118719;27;20043;-80
2023/03/19 05:46:43;;;;;;;8.23;7.27;;;9.30;99.90;;;;;;5082160;28;20067;-80
2023/03/19 05:49:09;;;;;;;8.03;6.60;;;9.30;99.90;;;;;;5061470;28;20032;-80
2023/03/19 05:51:35;;;;;;;7.13;6.40;;;9.20;99.90;;;;;;5102394;27;20043;-80
2023/03/19 05:54:01;;;;;;;8.40;6.67;;;9.20;99.90;;;;;;5103567;27;20099;-79
2023/03/19 05:56:28;;;;;;;7.77;6.80;;;9.10;99.90;;;;;;5087900;27;20484;-79
2023/03/19 05:58:54;;;;;;;6.90;6.20;;;9.10;99.90;;;;;;5072187;27;20062;-80
2023/03/19 06:01:20;;;;;;;7.57;6.07;;;9.10;99.90;;;;;;5069767;27;20061;-79
2023/03/19 06:03:46;;;;;;;7.50;6.33;;;9.00;99.90;;;;;;5100666;28;20626;-80
2023/03/19 06:06:12;;;;;;;7.70;6.10;;;9.00;99.90;;;;;;5090327;27;20110;-80
2023/03/19 06:08:38;;;;;;;7.57;6.30;;;9.00;99.90;;;;;;5127532;27;20039;-79
2023/03/19 06:11:04;;;;;;;6.93;6.23;;;8.90;99.90;;;;;;5083531;28;20127;-80
2023/03/19 06:13:30;;;;;;;7.93;6.73;;;9.00;99.90;;;;;;5098138;27;20103;-80
2023/03/19 06:15:55;;;;;;;8.97;6.63;;;8.90;99.90;;;;;;5105815;27;20035;-79
2023/03/19 06:18:21;;;;;;;8.97;6.20;;;8.90;99.90;;;;;;5100030;28;20062;-80
2023/03/19 06:20:47;;;;;;;8.40;6.63;;;8.80;99.90;;;;;;5085791;28;20114;-80
2023/03/19 06:23:13;;;;;;;7.90;6.67;;;8.80;99.90;;;;;;5100705;27;20099;-80
2023/03/19 06:25:39;;;;;;;7.00;6.30;;;8.80;99.90;;;;;;5104914;27;20105;-80
2023/03/19 06:28:05;;;;;;;6.63;5.73;;;8.80;99.90;;;;;;5111789;27;20063;-80
2023/03/19 06:30:32;;;;;;;7.50;6.60;;;8.80;99.90;;;;;;5117470;27;20031;-79
2023/03/19 06:32:57;;;;;;;7.13;6.23;;;8.70;99.90;;;;;;5106529;27;20092;-80
2023/03/19 06:35:23;;;;;;;7.47;6.60;;;8.60;99.90;;;;;;5098744;28;20499;-80
2023/03/19 06:37:49;;;;;;;7.47;6.77;;;8.60;99.90;;;;;;5123490;27;20040;-80
2023/03/19 06:40:15;;;;;;;7.37;6.50;;;8.70;99.90;;;;;;5064832;28;20129;-80
2023/03/19 06:42:46;;;;;;;7.00;6.13;;;8.70;99.90;;;;;;5087692;27;20035;-80
2023/03/19 06:45:15;;;;;;;7.07;6.37;;;8.70;99.90;;;;;;5097039;28;20047;-79
2023/03/19 06:47:42;;;;;;;8.97;7.13;;;8.70;99.90;;;;;;5131317;27;20035;-80
2023/03/19 06:50:11;;;;;;;9.90;7.30;;;8.80;99.90;;;;;;5109282;28;20444;-79
2023/03/19 06:52:38;;;;;;;8.40;7.53;;;8.80;99.90;;;;;;5130405;27;20046;-80
2023/03/19 06:55:05;;;;;;;9.40;7.57;;;8.90;99.90;;;;;;5107636;28;20054;-80
2023/03/19 06:57:31;;;;;;;8.87;7.27;;;9.00;99.90;;;;;;5108952;28;20047;-80
2023/03/19 06:59:56;;;;;;;7.47;6.77;;;9.00;99.90;;;;;;5112907;28;20142;-80
2023/03/19 07:02:22;;;;;;;10.53;6.47;;;9.00;99.90;;;;;;5103403;28;20111;-80
2023/03/19 07:04:48;;;;;;;7.07;6.30;;;9.00;99.90;;;;;;5085424;28;20043;-79
2023/03/19 07:07:13;;;;;;;7.77;6.10;;;8.90;99.90;;;;;;5124173;28;20067;-82
2023/03/19 07:09:39;;;;;;;7.40;5.67;;;8.90;99.90;;;;;;5046081;28;20482;-80
2023/03/19 07:12:05;;;;;;;7.77;6.30;;;8.90;99.90;;;;;;5097386;28;20121;-80
2023/03/19 07:14:31;;;;;;;8.60;7.00;;;8.90;99.90;;;;;;5098685;28;20117;-83
2023/03/19 07:16:57;;;;;;;9.10;7.37;;;8.80;99.90;;;;;;5072834;28;20051;-81
2023/03/19 07:19:22;;;;;;;9.77;7.57;;;8.80;99.90;;;;;;5058684;28;20048;-75
2023/03/19 07:21:48;;;;;;;8.60;7.47;;;8.90;99.90;;;;;;5102932;28;20047;-80
2023/03/19 07:24:14;;;;;;;8.23;7.20;;;8.90;99.90;;;;;;5121173;28;20054;-79
2023/03/19 07:26:41;;;;;;;9.37;7.87;;;8.80;99.90;;;;;;5094188;28;20759;-79
2023/03/19 07:29:07;;;;;;;11.10;8.83;;;8.90;99.90;;;;;;5098991;28;20046;-80
2023/03/19 07:31:33;;;;;;;11.97;8.47;;;9.00;99.90;;;;;;5095436;28;20075;-77
2023/03/19 07:33:58;;;;;;;11.30;9.20;;;9.10;99.90;;;;;;5099115;28;20706;-80
2023/03/19 07:36:25;;;;;;;11.83;10.10;;;9.30;99.90;;;;;;5078542;28;20612;-80
2023/03/19 07:38:50;;;;;;;13.10;10.10;;;9.30;99.90;;;;;;5116341;28;20518;-80
2023/03/19 07:41:16;;;;;;;12.53;9.60;;;9.50;99.90;;;;;;5079756;28;20046;-80
2023/03/19 07:43:42;;;;;;;13.67;10.40;;;9.60;99.90;;;;;;5116881;28;20043;-80
2023/03/19 07:46:08;;;;;;;13.47;10.37;;;9.70;99.90;;;;;;5084751;28;20071;-80
2023/03/19 07:48:34;;;;;;;15.87;10.30;;;9.80;99.90;;;;;;5093865;28;20040;-80
2023/03/19 07:51:00;;;;;;;13.70;10.37;;;9.90;99.90;;;;;;5108945;28;20574;-80
2023/03/19 07:53:26;;;;;;;13.70;10.70;;;10.00;99.90;;;;;;5054217;28;20051;-80
2023/03/19 07:55:51;;;;;;;14.60;11.20;;;10.10;99.90;;;;;;5110303;28;20036;-80
2023/03/19 07:58:18;;;;;;;14.07;10.77;;;10.20;99.90;;;;;;5068553;27;20090;-80
2023/03/19 08:00:44;;;;;;;12.53;10.00;;;10.30;99.90;;;;;;5105408;27;20043;-80
2023/03/19 08:03:10;;;;;;;13.30;10.90;;;10.40;99.90;;;;;;5124428;27;20701;-80
2023/03/19 08:05:36;;;;;;;13.70;10.97;;;10.40;99.90;;;;;;5103013;27;20043;-80
2023/03/19 08:08:02;;;;;;;15.73;11.40;;;10.60;99.90;;;;;;5100639;27;20310;-81
2023/03/19 08:10:28;;;;;;;14.03;11.20;;;10.50;99.90;;;;;;5081963;27;20081;-81
2023/03/19 08:12:53;;;;;;;14.77;11.13;;;10.60;99.90;;;;;;5096266;28;20074;-80
2023/03/19 08:15:19;;;;;;;14.47;11.63;;;10.50;99.90;;;;;;5110555;27;20135;-80
2023/03/19 08:17:45;;;;;;;13.90;12.07;;;10.60;99.90;;;;;;5114530;27;20115;-79
2023/03/19 08:20:15;;;;;;;15.70;11.50;;;10.60;99.90;;;;;;5076849;27;20048;-80
2023/03/19 08:22:41;;;;;;;16.33;12.10;;;10.70;99.90;;;;;;5091070;28;20063;-80
2023/03/19 08:25:09;;;;;;;14.90;11.23;;;10.80;99.90;;;;;;5122205;27;20048;-80
2023/03/19 08:27:35;;;;;;;17.97;13.07;;;10.90;99.90;;;;;;5082293;27;20047;-80
2023/03/19 08:30:07;;;;;;;17.57;13.13;;;11.00;99.90;;;;;;5088815;28;20453;-80
2023/03/19 08:32:34;;;;;;;17.17;13.13;;;11.10;99.90;;;;;;5086293;27;20043;-80
2023/03/19 08:35:00;;;;;;;17.67;13.37;;;11.20;99.90;;;;;;5100775;28;20403;-80
2023/03/19 08:37:26;;;;;;;17.90;14.70;;;11.20;99.90;;;;;;5099937;27;20079;-80
2023/03/19 08:39:52;;;;;;;16.27;13.57;;;11.20;99.90;;;;;;5096273;27;20049;-80
2023/03/19 08:42:18;;;;;;;19.30;14.47;;;11.30;99.90;;;;;;5114541;27;20044;-80
2023/03/19 08:44:44;;;;;;;19.93;14.83;;;11.40;99.90;;;;;;5071432;27;20114;-77
2023/03/19 08:47:11;;;;;;;18.93;14.40;;;11.50;99.90;;;;;;5093139;27;20043;-80
2023/03/19 08:49:37;;;;;;;19.27;14.47;;;11.70;99.90;;;;;;5076370;27;20028;-80
2023/03/19 08:52:03;;;;;;;20.93;15.33;;;11.80;99.90;;;;;;5087345;27;20103;-80
2023/03/19 08:54:29;;;;;;;18.67;14.70;;;11.90;99.90;;;;;;5067646;27;20108;-80
2023/03/19 08:56:54;;;;;;;19.87;14.90;;;12.00;99.90;;;;;;5095413;27;20039;-79
2023/03/19 08:59:20;;;;;;;16.77;13.40;;;12.00;99.90;;;;;;5122726;27;20102;-79
2023/03/19 09:01:53;;;;;;;18.47;13.90;;;11.90;99.90;;;;;;5081112;27;20052;-80
2023/03/19 09:04:20;;;;;;;16.33;12.45;;;11.90;99.90;;;;;;5081299;27;20090;-80
2023/03/19 09:06:50;;;;;;;17.95;14.18;;;11.90;99.90;;;;;;5096931;27;20730;-80
2023/03/19 09:09:20;;;;;;;17.10;13.40;;;11.90;99.90;;;;;;5092264;27;20066;-80
2023/03/19 09:11:46;;;;;;;17.23;13.38;;;11.90;99.90;;;;;;5099534;27;20050;-80
2023/03/19 09:14:15;;;;;;;17.97;13.83;;;11.90;99.90;;;;;;5076479;27;20123;-80
2023/03/19 09:16:42;;;;;;;16.27;12.50;;;11.90;99.90;;;;;;5111495;27;20039;-80
2023/03/19 09:19:08;;;;;;;15.63;13.17;;;11.90;99.90;;;;;;5092974;27;20526;-80
2023/03/19 09:21:35;;;;;;;16.08;12.90;;;11.90;99.90;;;;;;5078169;27;20035;-80
2023/03/19 09:24:01;;;;;;;17.63;13.57;;;12.00;99.90;;;;;;5114624;27;20039;-80
2023/03/19 09:26:27;;;;;;;17.50;13.40;;;12.10;99.90;;;;;;5103039;27;20043;-80
2023/03/19 09:28:52;;;;;;;17.85;12.75;;;12.30;99.90;;;;;;5121237;27;20073;-81
2023/03/19 09:31:18;;;;;;;17.10;12.80;;;12.30;99.90;;;;;;5081677;27;20039;-80
2023/03/19 09:33:44;;;;;;;16.15;12.23;;;12.40;99.90;;;;;;5100175;27;20051;-80
2023/03/19 09:36:10;;;;;;;15.35;12.38;;;12.50;99.90;;;;;;5117456;27;20671;-80
2023/03/19 09:38:35;;;;;;;14.15;11.68;;;12.50;99.90;;;;;;5099206;27;20887;-80
2023/03/19 09:41:19;;;;;;;14.25;11.40;;;12.50;99.90;;;;;;5112428;27;20048;-80
2023/03/19 09:43:51;;;;;;;13.50;11.02;;;12.50;99.90;;;;;;5075754;27;20054;-80
2023/03/19 09:46:18;;;;;;;;;;;12.50;99.90;;;;;;5091026;28;20083;-80
2023/03/19 09:48:54;;;;;;;14.15;11.40;;;12.50;99.90;;;;;;5092558;27;19930;-80
2023/03/19 09:51:47;;;;;;;13.90;11.32;;;12.50;99.90;;;;;;5114030;27;20051;-80
2023/03/19 09:54:25;;;;;;;12.35;10.52;;;12.50;99.90;;;;;;5101972;27;20074;-81
2023/03/19 09:56:51;;;;;;;13.95;11.35;;;12.50;99.90;;;;;;5120071;27;20084;-80
2023/03/19 09:59:19;;;;;;;13.73;11.15;;;12.50;99.90;;;;;;5117564;27;20054;-79
2023/03/19 10:01:54;;;;;;;14.02;10.73;;;12.60;99.90;;;;;;5081023;27;20051;-81
2023/03/19 10:04:29;;;;;;;15.52;11.27;;;12.80;99.90;;;;;;5120898;27;20043;-80
2023/03/19 10:07:07;;;;;;;12.40;10.68;;;12.90;99.90;;;;;;5097155;27;20052;-80
2023/03/19 10:09:46;;;;;;;14.73;10.75;;;13.00;99.90;;;;;;5112607;27;20047;-80
2023/03/19 10:12:41;;;;;;;12.15;9.98;;;13.00;99.90;;;;;;5112167;27;20052;-80
2023/03/19 10:15:18;;;;;;;12.25;9.98;;;13.20;99.90;;;;;;5095477;27;20051;-81
2023/03/19 10:18:04;;;;;;;10.90;9.65;;;13.30;99.90;;;;;;5096894;27;20039;-84
2023/03/19 10:20:36;;;;;;;10.10;9.02;;;13.50;99.90;;;;;;5074643;27;20044;-85
2023/03/19 10:23:32;;;;;;;10.43;8.98;;;13.60;99.90;;;;;;5113770;27;20046;-86
2023/03/19 10:26:01;;;;;;;10.43;9.32;;;13.80;99.90;;;;;;5113458;27;20055;-84
2023/03/19 10:28:28;;;;;;;11.40;8.93;;;13.90;99.90;;;;;;5098420;27;20053;-84
2023/03/19 10:31:23;;;;;;;10.90;9.40;;;13.80;99.90;;;;;;5094499;28;20449;-84
2023/03/19 10:34:01;;;;;;;8.80;7.18;;;13.70;99.90;;;;;;5101036;28;20035;-85
2023/03/19 10:36:33;;;;;;;8.65;7.22;;;13.70;99.90;;;;;;5120055;27;20047;-85
2023/03/19 10:38:59;;;;;;;;;;;13.70;99.90;;;;;;5104802;28;20488;-85
2023/03/19 10:41:40;;;;;;;9.48;7.85;;;13.60;99.90;;;;;;5124280;27;19924;-83
2023/03/19 10:44:13;;;;;;;10.15;8.27;;;13.70;99.90;;;;;;5100495;27;20053;-85
2023/03/19 10:46:39;;;;;;;10.63;8.23;;;13.60;99.90;;;;;;5084506;28;20101;-85
2023/03/19 10:49:11;;;;;;;10.68;8.60;;;13.60;99.90;;;;;;5090388;27;20039;-85
2023/03/19 10:51:38;;;;;;;11.60;8.77;;;13.60;99.90;;;;;;5093156;28;20039;-84
2023/03/19 10:54:19;;;;;;;10.05;8.32;;;13.60;99.90;;;;;;5100223;28;20039;-85
2023/03/19 10:56:45;;;;;;;11.02;8.65;;;13.50;99.90;;;;;;5105071;28;20051;-85
2023/03/19 10:59:29;;;;;;;11.88;9.95;;;13.60;99.90;;;;;;5120018;28;20418;-84
2023/03/19 11:02:02;;;;;;;14.18;11.25;;;13.60;99.90;;;;;;5100244;28;20059;-84
2023/03/19 11:04:28;;;;;;;12.82;10.40;;;13.60;99.90;;;;;;5097538;28;20097;-85
2023/03/19 11:07:18;;;;;;;15.32;11.10;;;13.50;99.90;;;;;;5109834;28;20052;-84
2023/03/19 11:09:49;;;;;;;12.30;10.13;;;13.60;99.90;;;;;;5101131;28;20055;-84
2023/03/19 11:12:36;;;;;;;13.00;11.00;;;13.70;99.90;;;;;;5097654;28;20044;-85
2023/03/19 11:15:11;;;;;;;12.52;10.50;;;14.00;99.90;;;;;;5103441;28;20087;-84
2023/03/19 11:17:38;;;;;;;11.43;10.00;;;14.20;99.90;;;;;;5105938;28;20126;-84
2023/03/19 11:20:10;;;;;;;12.65;10.25;;;14.30;99.90;;;;;;5118479;28;20079;-85
2023/03/19 11:22:36;;;;;;;;;;;14.20;99.90;;;;;;5097771;28;20085;-84
2023/03/19 11:25:22;;;;;;;11.90;10.55;;;14.00;99.90;;;;;;5109673;28;20039;-84
2023/03/19 11:28:00;;;;;;;11.32;9.93;;;14.00;99.90;;;;;;5105683;28;20130;-84
2023/03/19 11:30:46;;;;;;;12.65;10.85;;;14.10;99.90;;;;;;5122354;27;20121;-84
2023/03/19 11:33:33;;;;;;;11.75;10.32;;;14.10;99.90;;;;;;5122584;27;20093;-84
2023/03/19 11:36:10;;;;;;;13.38;10.80;;;14.20;99.90;;;;;;5122829;27;20095;-84
2023/03/19 11:38:51;;;;;;;14.38;11.50;;;14.20;99.90;;;;;;5126816;27;20047;-85
2023/03/19 11:41:35;;;;;;;14.25;11.75;;;14.30;99.90;;;;;;5088319;27;20039;-84
2023/03/19 11:44:05;;;;;;;13.48;10.98;;;14.30;99.90;;;;;;5098993;27;20040;-85
2023/03/19 11:46:37;;;;;;;13.10;10.23;;;14.50;99.90;;;;;;5108452;27;20035;-85
2023/03/19 11:49:30;;;;;;;13.00;10.90;;;14.60;99.90;;;;;;5082432;28;20055;-85
2023/03/19 11:52:04;;;;;;;14.13;11.52;;;14.70;99.90;;;;;;5120274;27;20040;-85
2023/03/19 11:54:36;;;;;;;13.88;11.70;;;14.70;99.90;;;;;;5113881;27;20047;-85
2023/03/19 11:57:16;;;;;;;13.95;12.02;;;14.70;99.90;;;;;;5107473;27;20467;-85
2023/03/19 12:00:15;;;;;;;13.82;12.00;;;14.90;99.90;;;;;;5118779;27;20102;-85
2023/03/19 12:02:44;;;;;;;14.23;12.70;;;15.00;99.90;;;;;;5119762;27;20073;-85
2023/03/19 12:05:28;;;;;;;12.38;11.15;;;15.10;99.90;;;;;;5102974;27;20058;-84
2023/03/19 12:08:43;;;;;;;11.95;10.75;;;15.10;99.90;;;;;;5124147;27;20433;-84
2023/03/19 12:11:19;;;;;;;14.70;11.95;;;15.10;99.90;;;;;;5119200;27;20084;-85
2023/03/19 12:13:56;;;;;;;14.20;11.70;;;15.00;99.90;;;;;;5082850;28;20118;-84
2023/03/19 12:16:25;;;;;;;15.40;12.48;;;15.00;99.90;;;;;;5090631;27;20059;-84
2023/03/19 12:19:10;;;;;;;12.55;10.98;;;15.10;99.90;;;;;;5106107;27;20039;-84
2023/03/19 12:21:54;;;;;;;13.27;11.32;;;15.00;99.90;;;;;;5106319;27;20039;-84
2023/03/19 12:24:38;;;;;;;15.65;12.40;;;15.00;99.90;;;;;;5119601;27;20054;-84
2023/03/19 12:27:37;;;;;;;13.95;11.18;;;15.10;99.90;;;;;;5124307;27;20079;-84
2023/03/19 12:30:14;;;;;;;10.98;9.88;;;15.10;99.90;;;;;;5080755;27;20067;-86
2023/03/19 12:33:02;;;;;;;11.38;9.63;;;15.10;99.90;;;;;;5121859;27;20130;-86
2023/03/19 12:35:34;;;;;;;14.70;10.70;;;15.10;99.90;;;;;;5094579;27;20080;-86
2023/03/19 12:38:08;;;;;;;13.02;10.65;;;15.20;99.90;;;;;;5100093;27;20047;-86
2023/03/19 12:40:50;;;;;;;12.40;10.60;;;15.30;99.90;;;;;;5088687;27;20051;-85
2023/03/19 12:43:27;;;;;;;12.13;10.35;;;15.40;99.90;;;;;;5116667;27;20048;-85
2023/03/19 12:46:15;;;;;;;11.98;10.43;;;15.50;99.90;;;;;;5124972;27;20297;-85
2023/03/19 12:49:17;;;;;;;11.40;9.77;;;15.60;99.90;;;;;;5110096;28;20047;-86